Time;durP1;ratioP1;P1;durP2;ratioP2;P2;SDS_P1;SDS_P2;PMS_P1;PMS_P2;Temp;Humidity;BMP_temperature;BMP_pressure;BME280_temperature;BME280_humidity;BME280_pressure;Samples;Min_cycle;Max_cycle;Signal;HPM_P1;HPM_P2
2023/05/16 13:52:27;;;;;;;9.32;5.30;;;;;;;19.53;60.02;95787.03;2061088;27;1986131;-87
2023/05/16 13:53:29;;;;;;;14.63;5.28;;;;;;;19.88;59.11;95787.63;2097693;28;20055;-82
2023/05/16 13:54:30;;;;;;;8.00;5.15;;;;;;;20.15;58.65;95789.63;2080945;28;20037;-82
2023/05/16 13:55:31;;;;;;;8.35;4.82;;;;;;;20.42;57.87;95795.09;2087537;28;20045;-83
2023/05/16 13:56:35;;;;;;;6.97;4.13;;;;;;;20.67;56.80;95788.44;2073982;28;20074;-86
2023/05/16 13:57:38;;;;;;;7.30;4.43;;;;;;;20.89;56.77;95787.31;2076153;28;20049;-87
2023/05/16 13:58:39;;;;;;;19.30;4.93;;;;;;;21.06;55.96;95775.22;2064256;28;20046;-85
2023/05/16 13:59:40;;;;;;;6.53;4.28;;;;;;;21.26;55.07;95788.34;2080422;28;20041;-84
2023/05/16 14:00:42;;;;;;;6.80;3.95;;;;;;;21.46;55.11;95792.63;2071572;28;20061;-85
2023/05/16 14:01:45;;;;;;;8.57;4.72;;;;;;;21.60;54.26;95788.69;2088159;28;20044;-80
2023/05/16 14:02:46;;;;;;;8.18;4.18;;;;;;;21.78;53.37;95800.16;2112378;28;20126;-80
2023/05/16 14:03:48;;;;;;;4.40;3.35;;;;;;;21.89;53.21;95795.63;2112531;28;20414;-79
2023/05/16 14:04:51;;;;;;;6.28;3.67;;;;;;;22.02;53.17;95788.19;2096527;28;20072;-80
2023/05/16 14:05:53;;;;;;;8.45;3.80;;;;;;;22.13;52.69;95795.94;2080459;28;20049;-81
2023/05/16 14:06:55;;;;;;;7.13;3.60;;;;;;;22.23;52.22;95799.38;2072393;28;20050;-81
2023/05/16 14:07:56;;;;;;;5.75;3.45;;;;;;;22.36;52.51;95800.84;2089081;28;20516;-78
2023/05/16 14:08:57;;;;;;;6.85;3.72;;;;;;;22.45;51.86;95791.97;2078880;28;20046;-79
2023/05/16 14:09:59;;;;;;;5.47;3.70;;;;;;;22.55;53.09;95797.22;2071105;28;20076;-78
2023/05/16 14:11:00;;;;;;;4.68;3.50;;;;;;;22.58;51.83;95799.56;2078407;28;20061;-79
2023/05/16 14:12:04;;;;;;;6.22;3.42;;;;;;;22.61;51.46;95797.44;2070234;28;20068;-78
2023/05/16 14:13:06;;;;;;;6.35;3.50;;;;;;;22.72;51.72;95792.88;2088211;28;20056;-78
2023/05/16 14:14:07;;;;;;;5.63;3.63;;;;;;;22.78;50.94;95801.06;2095551;28;20120;-79
2023/05/16 14:15:09;;;;;;;7.03;3.50;;;;;;;22.82;51.00;95802.41;2077159;28;20068;-78
2023/05/16 14:16:10;;;;;;;5.97;3.28;;;;;;;22.85;51.14;95801.28;2079857;28;20096;-78
2023/05/16 14:17:11;;;;;;;6.38;3.35;;;;;;;22.93;51.73;95801.34;2087868;28;20076;-78
2023/05/16 14:18:13;;;;;;;7.10;3.30;;;;;;;22.97;50.90;95804.56;2080117;28;20050;-78
2023/05/16 14:19:15;;;;;;;6.03;3.70;;;;;;;22.97;50.88;95796.63;2072205;28;20094;-78
2023/05/16 14:20:17;;;;;;;4.45;3.13;;;;;;;22.99;50.41;95799.91;2087550;28;20045;-79
2023/05/16 14:21:18;;;;;;;6.28;3.42;;;;;;;28.61;95.06;95806.66;2087729;28;20420;-82
2023/05/16 14:22:19;;;;;;;6.15;3.15;;;;;;;25.95;45.48;95805.75;2100433;28;20507;-85
2023/05/16 14:23:23;;;;;;;6.72;3.30;;;;;;;24.21;47.70;95767.94;2082652;28;20041;-81
2023/05/16 14:24:24;;;;;;;8.00;3.45;;;;;;;23.61;49.27;95763.56;2089693;28;20041;-82
2023/05/16 14:25:25;;;;;;;5.55;3.60;;;;;;;23.52;49.65;95794.50;2098648;28;20045;-79
2023/05/16 14:26:27;;;;;;;7.35;3.22;;;;;;;23.26;49.49;95767.19;2096586;28;20052;-77
2023/05/16 14:27:29;;;;;;;5.32;3.17;;;;;;;23.20;49.82;95773.94;2088667;28;20045;-82
2023/05/16 14:28:31;;;;;;;6.18;3.47;;;;;;;23.38;50.01;95818.91;2074506;28;20050;-82
2023/05/16 14:29:33;;;;;;;7.47;3.17;;;;;;;23.33;50.24;95816.75;2091169;28;20056;-84
2023/05/16 14:30:36;;;;;;;7.10;3.53;;;;;;;23.29;50.55;95823.34;2093258;28;20049;-82
2023/05/16 14:31:37;;;;;;;6.32;3.30;;;;;;;23.30;50.22;95816.22;2082128;28;20049;-80
2023/05/16 14:32:41;;;;;;;4.13;2.88;;;;;;;23.28;50.08;95818.19;2081254;28;20053;-79
2023/05/16 14:33:43;;;;;;;4.65;3.00;;;;;;;23.21;49.74;95799.44;2080943;28;20057;-79
2023/05/16 14:34:44;;;;;;;9.00;3.00;;;;;;;23.29;50.25;95810.09;2072045;28;20052;-79
2023/05/16 14:35:48;;;;;;;5.80;3.42;;;;;;;23.09;49.54;95771.53;2072615;28;20046;-81
2023/05/16 14:36:50;;;;;;;7.60;2.88;;;;;;;23.36;50.29;95820.06;2082523;28;20432;-79
2023/05/16 14:37:51;;;;;;;6.05;3.25;;;;;;;23.33;49.83;95816.75;2089876;28;20060;-79
2023/05/16 14:38:52;;;;;;;7.03;3.00;;;;;;;23.41;49.65;95823.91;2088541;28;20135;-81
2023/05/16 14:39:54;;;;;;;5.20;3.00;;;;;;;23.26;49.34;95794.50;2089603;28;20109;-80
2023/05/16 14:40:56;;;;;;;4.43;2.80;;;;;;;23.41;50.23;95808.00;2108061;28;20041;-80
2023/05/16 14:42:01;;;;;;;5.60;3.05;;;;;;;23.45;49.30;95824.44;2113916;28;20055;-79
2023/05/16 14:43:05;;;;;;;7.03;3.08;;;;;;;23.14;49.61;95771.06;2105223;28;20064;-78
2023/05/16 14:44:07;;;;;;;4.68;2.88;;;;;;;23.18;49.27;95788.34;2081617;28;20057;-79
2023/05/16 14:45:09;;;;;;;3.92;2.70;;;;;;;23.22;49.20;95789.66;2071323;28;20049;-81
2023/05/16 14:46:10;;;;;;;6.28;3.08;;;;;;;23.27;49.58;95801.47;2087898;28;20412;-79
2023/05/16 14:47:12;;;;;;;5.80;2.88;;;;;;;23.29;49.69;95804.78;2071965;28;20058;-82
2023/05/16 14:48:13;;;;;;;3.58;3.00;;;;;;;23.25;49.51;95792.00;2079847;28;20436;-81
2023/05/16 14:49:15;;;;;;;5.30;2.95;;;;;;;23.04;49.25;95761.44;2087759;28;20508;-81
2023/05/16 14:50:17;;;;;;;7.82;3.05;;;;;;;23.35;49.12;95805.97;2079922;28;20436;-80
2023/05/16 14:51:18;;;;;;;3.22;2.70;;;;;;;23.19;49.18;95774.91;2080071;28;20045;-81
2023/05/16 14:52:19;;;;;;;4.70;2.80;;;;;;;23.29;49.06;95801.31;2090586;28;20029;-79
2023/05/16 14:53:21;;;;;;;5.53;2.97;;;;;;;23.41;49.34;95820.41;2093309;28;20071;-81
2023/05/16 14:54:22;;;;;;;5.95;3.08;;;;;;;23.44;49.74;95822.75;2085815;28;20052;-80
2023/05/16 14:55:24;;;;;;;4.13;2.78;;;;;;;23.50;49.44;95822.16;2082713;28;20050;-81
2023/05/16 14:56:26;;;;;;;13.35;3.40;;;;;;;23.43;48.87;95799.91;2083629;28;20088;-81
2023/05/16 14:57:28;;;;;;;6.32;2.85;;;;;;;23.44;48.58;95820.97;2093680;28;20051;-82
2023/05/16 14:58:29;;;;;;;5.22;2.83;;;;;;;23.31;49.10;95807.31;2095973;28;20121;-80
2023/05/16 14:59:30;;;;;;;5.53;3.28;;;;;;;23.39;48.89;95820.59;2094621;28;20045;-80
2023/05/16 15:00:32;;;;;;;3.40;2.47;;;;;;;23.10;48.65;95763.44;2076788;28;20056;-80
2023/05/16 15:01:34;;;;;;;3.60;2.67;;;;;;;23.39;48.61;95796.75;2084056;28;20053;-82
2023/05/16 15:02:36;;;;;;;3.13;2.40;;;;;;;23.55;48.16;95812.75;2099515;28;20051;-85
2023/05/16 15:03:39;;;;;;;11.45;3.08;;;;;;;23.33;48.44;95778.81;2087615;28;20045;-83
2023/05/16 15:04:40;;;;;;;3.38;2.92;;;;;;;23.58;48.22;95813.44;2079177;28;20057;-83
2023/05/16 15:05:41;;;;;;;6.32;2.80;;;;;;;23.37;48.19;95785.47;2077393;28;20046;-84
2023/05/16 15:06:43;;;;;;;4.30;3.00;;;;;;;23.47;48.67;95802.09;2083665;28;20471;-80
2023/05/16 15:07:44;;;;;;;5.13;2.58;;;;;;;23.49;48.03;95797.44;2083025;28;20044;-80
2023/05/16 15:08:46;;;;;;;3.75;2.60;;;;;;;23.50;48.45;95788.53;2074283;28;20049;-82
2023/05/16 15:09:47;;;;;;;3.83;2.40;;;;;;;23.63;49.11;95811.97;2082165;28;20049;-80
2023/05/16 15:10:49;;;;;;;3.55;2.40;;;;;;;23.67;48.19;95817.75;2081390;28;20045;-80
